createdAt,value
2023-01-13T00:01:26.337Z,93585.69
2023-01-13T00:03:54.360Z,93595.25
2023-01-13T00:06:27.943Z,93590.16
2023-01-13T00:08:55.576Z,93593.13
2023-01-13T00:11:22.983Z,93590.81
2023-01-13T00:13:50.218Z,93594.69
2023-01-13T00:16:19.489Z,93594.44
2023-01-13T00:18:47.370Z,93600.84
2023-01-13T00:21:19.112Z,93595.41
2023-01-13T00:23:47.289Z,93591.94
2023-01-13T00:26:20.661Z,93595.59
2023-01-13T00:28:49.178Z,93591.66
2023-01-13T00:31:21.173Z,93596.69
2023-01-13T00:33:49.470Z,93595.66
2023-01-13T00:36:19.482Z,93600.06
2023-01-13T00:38:47.942Z,93603.41
2023-01-13T00:41:18.501Z,93602.09
2023-01-13T00:43:46.323Z,93602.41
2023-01-13T00:46:20.358Z,93598.44
2023-01-13T00:48:48.299Z,93597.25
2023-01-13T00:51:18.877Z,93596.72
2023-01-13T00:53:51.565Z,93592.19
2023-01-13T00:56:38.416Z,93596.38
2023-01-13T00:59:07.427Z,93599.94
2023-01-13T01:01:35.184Z,93598.16
2023-01-13T01:04:02.509Z,93594.94
2023-01-13T01:06:30.067Z,93589.75
2023-01-13T01:08:57.746Z,93586.84
2023-01-13T01:11:32.627Z,93590.06
2023-01-13T01:14:02.921Z,93579.16
2023-01-13T01:16:31.831Z,93584.00
2023-01-13T01:19:00.157Z,93585.44
2023-01-13T01:21:28.968Z,93578.63
2023-01-13T01:23:59.687Z,93575.28
2023-01-13T01:26:29.028Z,93578.53
2023-01-13T01:28:56.646Z,93571.84
2023-01-13T01:31:33.903Z,93578.81
2023-01-13T01:34:02.003Z,93575.53
2023-01-13T01:36:32.125Z,93576.84
2023-01-13T01:39:00.206Z,93568.75
2023-01-13T01:41:32.093Z,93571.34
2023-01-13T01:44:08.340Z,93575.41
2023-01-13T01:46:42.489Z,93568.75
2023-01-13T01:49:24.746Z,93571.66
2023-01-13T01:52:00.843Z,93565.97
2023-01-13T01:54:34.550Z,93567.03
2023-01-13T01:57:02.423Z,93566.16
2023-01-13T01:59:32.700Z,93559.91
2023-01-13T02:02:00.366Z,93563.22
2023-01-13T02:04:34.746Z,93559.91
2023-01-13T02:07:03.505Z,93565.91
2023-01-13T02:09:31.419Z,93564.47
2023-01-13T02:12:17.395Z,93560.31
2023-01-13T02:14:45.950Z,93555.66
2023-01-13T02:17:22.359Z,93562.63
2023-01-13T02:20:21.590Z,93560.91
2023-01-13T02:22:54.965Z,93554.75
2023-01-13T02:25:57.545Z,93554.94
2023-01-13T02:29:08.743Z,93557.31
2023-01-13T02:31:43.264Z,93556.78
2023-01-13T02:34:23.064Z,93552.72
2023-01-13T02:36:58.450Z,93560.87
2023-01-13T02:39:28.867Z,93564.62
2023-01-13T02:42:56.755Z,93568.41
2023-01-13T02:45:31.597Z,93559.16
2023-01-13T02:48:02.114Z,93569.66
2023-01-13T02:50:35.534Z,93562.53
2023-01-13T02:53:16.490Z,93567.91
2023-01-13T02:55:49.953Z,93562.41
2023-01-13T02:58:24.295Z,93562.84
2023-01-13T03:00:52.479Z,93561.22
2023-01-13T03:03:20.195Z,93567.66
2023-01-13T03:05:51.719Z,93559.56
2023-01-13T03:08:27.371Z,93574.81
2023-01-13T03:11:13.051Z,93567.94
2023-01-13T03:14:31.762Z,93568.19
2023-01-13T03:17:37.657Z,93562.22
2023-01-13T03:20:07.417Z,93567.66
2023-01-13T03:22:45.569Z,93566.34
2023-01-13T03:25:13.087Z,93563.53
2023-01-13T03:27:53.048Z,93568.69
2023-01-13T03:30:27.252Z,93566.31
2023-01-13T03:33:27.993Z,93574.78
2023-01-13T03:36:02.109Z,93567.31
2023-01-13T03:38:39.939Z,93573.72
2023-01-13T03:41:12.152Z,93568.53
2023-01-13T03:44:08.575Z,93573.75
2023-01-13T03:46:52.312Z,93569.31
2023-01-13T03:49:24.538Z,93575.72
2023-01-13T03:51:57.278Z,93569.38
2023-01-13T03:54:28.467Z,93576.94
2023-01-13T03:57:00.793Z,93577.06
2023-01-13T03:59:33.499Z,93579.12
2023-01-13T04:02:36.667Z,93583.84
2023-01-13T04:05:09.365Z,93575.91
2023-01-13T04:08:01.858Z,93577.88
2023-01-13T04:10:40.211Z,93580.78
2023-01-13T04:13:13.138Z,93585.88
2023-01-13T04:15:44.514Z,93588.75
2023-01-13T04:18:22.274Z,93581.13
2023-01-13T04:20:53.161Z,93589.13
2023-01-13T04:23:21.880Z,93586.16
2023-01-13T04:25:50.739Z,93586.00
2023-01-13T04:28:18.739Z,93588.22
2023-01-13T04:30:46.603Z,93586.59
2023-01-13T04:33:15.949Z,93577.88
2023-01-13T04:35:45.134Z,93592.66
2023-01-13T04:38:18.538Z,93585.28
2023-01-13T04:40:46.718Z,93589.03
2023-01-13T04:43:15.939Z,93591.41
2023-01-13T04:45:43.655Z,93590.25
2023-01-13T04:48:11.917Z,93591.13
2023-01-13T04:50:39.683Z,93591.78
2023-01-13T04:53:07.290Z,93583.66
2023-01-13T04:55:35.883Z,93592.16
2023-01-13T04:58:05.727Z,93584.53
2023-01-13T05:00:33.445Z,93587.84
2023-01-13T05:03:03.387Z,93587.72
2023-01-13T05:05:31.036Z,93590.16
2023-01-13T05:07:58.642Z,93590.53
2023-01-13T05:10:27.505Z,93592.50
2023-01-13T05:13:13.334Z,93592.84
2023-01-13T05:16:00.938Z,93595.00
2023-01-13T05:18:30.969Z,93592.78
2023-01-13T05:20:58.705Z,93592.06
2023-01-13T05:23:44.895Z,93597.38
2023-01-13T05:26:12.504Z,93600.41
2023-01-13T05:28:39.844Z,93601.75
2023-01-13T05:31:07.278Z,93597.56
2023-01-13T05:33:36.149Z,93603.38
2023-01-13T05:36:03.986Z,93597.63
2023-01-13T05:38:31.303Z,93605.81
2023-01-13T05:41:18.864Z,93609.19
2023-01-13T05:43:46.186Z,93609.38
2023-01-13T05:46:15.048Z,93614.59
2023-01-13T05:48:43.610Z,93613.16
2023-01-13T05:51:13.095Z,93615.09
2023-01-13T05:53:43.724Z,93619.59
2023-01-13T05:56:11.649Z,93614.59
2023-01-13T06:01:08.877Z,93620.06
2023-01-13T06:03:36.941Z,93614.97
2023-01-13T06:06:04.704Z,93617.19
2023-01-13T06:08:32.819Z,93619.88
2023-01-13T06:11:00.480Z,93624.25
2023-01-13T06:13:28.261Z,93624.59
2023-01-13T06:15:59.589Z,93619.34
2023-01-13T06:18:28.355Z,93623.09
2023-01-13T06:20:56.397Z,93631.66
2023-01-13T06:26:05.845Z,93631.63
2023-01-13T06:28:33.509Z,93632.84
2023-01-13T06:31:04.466Z,93633.81
2023-01-13T06:33:38.874Z,93627.97
2023-01-13T06:36:14.152Z,93628.31
2023-01-13T06:38:45.902Z,93631.13
2023-01-13T06:41:13.932Z,93624.09
2023-01-13T06:43:41.650Z,93632.41
2023-01-13T06:46:08.986Z,93634.22
2023-01-13T06:48:36.802Z,93628.75
2023-01-13T06:51:05.054Z,93629.19
2023-01-13T06:53:32.649Z,93629.44
2023-01-13T06:56:00.318Z,93626.69
2023-01-13T06:58:27.685Z,93628.28
2023-01-13T07:00:55.117Z,93626.84
2023-01-13T07:03:22.777Z,93630.75
2023-01-13T07:05:56.499Z,93632.22
2023-01-13T07:08:25.128Z,93641.41
2023-01-13T07:10:53.248Z,93632.34
2023-01-13T07:13:47.592Z,93634.75
2023-01-13T07:16:15.426Z,93631.72
2023-01-13T07:18:42.765Z,93628.44
2023-01-13T07:21:13.388Z,93634.78
2023-01-13T07:23:42.030Z,93635.66
2023-01-13T07:26:10.185Z,93635.91
2023-01-13T07:28:38.475Z,93635.91
2023-01-13T07:31:14.389Z,93639.44
2023-01-13T07:33:41.862Z,93645.59
2023-01-13T07:38:40.065Z,93640.25
2023-01-13T07:41:26.486Z,93644.59
2023-01-13T07:43:54.353Z,93640.34
2023-01-13T07:46:21.664Z,93638.66
2023-01-13T07:48:49.310Z,93637.44
2023-01-13T07:51:17.426Z,93641.28
2023-01-13T07:53:44.990Z,93640.53
2023-01-13T07:56:12.286Z,93645.25
2023-01-13T07:58:40.305Z,93642.75
2023-01-13T08:01:12.798Z,93640.41
2023-01-13T08:03:41.204Z,93637.56
2023-01-13T08:06:09.922Z,93638.66
2023-01-13T08:08:38.257Z,93637.06
2023-01-13T08:11:07.766Z,93642.88
2023-01-13T08:13:35.387Z,93642.72
2023-01-13T08:16:08.373Z,93650.84
2023-01-13T08:18:37.654Z,93649.88
2023-01-13T08:21:11.701Z,93650.03
2023-01-13T08:23:40.360Z,93643.66
2023-01-13T08:26:13.834Z,93645.66
2023-01-13T08:28:41.853Z,93647.62
2023-01-13T08:31:14.751Z,93644.59
2023-01-13T08:33:42.789Z,93642.03
2023-01-13T08:36:12.542Z,93641.88
2023-01-13T08:38:41.290Z,93635.53
2023-01-13T08:41:12.787Z,93636.06
2023-01-13T08:43:40.189Z,93637.25
2023-01-13T08:46:07.840Z,93642.31
2023-01-13T08:48:35.732Z,93636.06
2023-01-13T08:51:08.289Z,93638.63
2023-01-13T08:53:36.368Z,93640.66
2023-01-13T08:56:11.205Z,93636.13
2023-01-13T08:58:39.257Z,93634.41
2023-01-13T09:01:08.726Z,93635.81
2023-01-13T09:03:36.254Z,93626.84
2023-01-13T09:06:04.278Z,93624.47
2023-01-13T09:08:31.863Z,93631.66
2023-01-13T09:10:59.890Z,93629.59
2023-01-13T09:13:27.749Z,93623.00
2023-01-13T09:15:56.949Z,93623.81
2023-01-13T09:18:24.528Z,93614.41
2023-01-13T09:20:52.326Z,93625.44
2023-01-13T09:23:20.187Z,93614.06
2023-01-13T09:25:48.532Z,93612.84
2023-01-13T09:28:16.250Z,93611.13
2023-01-13T09:30:43.682Z,93615.56
2023-01-13T09:33:29.443Z,93615.00
2023-01-13T09:36:01.340Z,93606.03
2023-01-13T09:38:28.892Z,93607.22
2023-01-13T09:40:56.775Z,93607.41
2023-01-13T09:43:53.705Z,93615.69
2023-01-13T09:46:47.379Z,93609.50
2023-01-13T09:49:31.370Z,93615.06
2023-01-13T09:52:07.806Z,93613.25
2023-01-13T09:54:43.393Z,93616.28
2023-01-13T09:57:16.102Z,93618.47
2023-01-13T09:59:44.401Z,93613.47
2023-01-13T10:02:15.190Z,93621.03
2023-01-13T10:04:42.945Z,93619.06
2023-01-13T10:07:15.272Z,93613.25
2023-01-13T10:09:52.811Z,93621.25
2023-01-13T10:12:43.510Z,93612.28
2023-01-13T10:15:17.013Z,93613.28
2023-01-13T10:18:11.916Z,93607.66
2023-01-13T10:21:15.245Z,93604.88
2023-01-13T10:23:57.162Z,93597.91
2023-01-13T10:26:44.367Z,93600.28
2023-01-13T10:29:27.694Z,93601.88
2023-01-13T10:31:56.980Z,93597.28
2023-01-13T10:34:25.590Z,93595.69
2023-01-13T10:37:03.247Z,93592.47
2023-01-13T10:39:40.931Z,93599.84
2023-01-13T10:42:17.353Z,93601.66
2023-01-13T10:44:49.344Z,93600.09
2023-01-13T10:47:27.222Z,93603.28
2023-01-13T10:50:06.042Z,93599.88
2023-01-13T10:52:38.549Z,93605.28
2023-01-13T10:55:30.504Z,93594.09
2023-01-13T10:57:58.171Z,93588.88
2023-01-13T11:00:33.107Z,93591.06
2023-01-13T11:03:12.923Z,93590.84
2023-01-13T11:05:51.729Z,93588.31
2023-01-13T11:08:31.502Z,93595.06
2023-01-13T11:11:00.682Z,93587.28
2023-01-13T11:14:02.627Z,93577.69
2023-01-13T11:16:30.781Z,93579.69
2023-01-13T11:19:13.527Z,93569.91
2023-01-13T11:21:58.421Z,93569.31
2023-01-13T11:24:45.011Z,93569.09
2023-01-13T11:27:33.095Z,93563.34
2023-01-13T11:30:33.269Z,93569.31
2023-01-13T11:33:10.123Z,93554.94
2023-01-13T11:36:06.267Z,93562.72
2023-01-13T11:38:57.243Z,93559.13
2023-01-13T11:41:37.827Z,93561.31
2023-01-13T11:44:18.391Z,93564.12
2023-01-13T11:46:50.382Z,93562.53
2023-01-13T11:49:31.115Z,93558.53
2023-01-13T11:52:18.687Z,93559.53
2023-01-13T11:55:01.930Z,93564.12
2023-01-13T11:57:57.432Z,93561.53
2023-01-13T12:00:50.497Z,93557.72
2023-01-13T12:03:35.876Z,93560.13
2023-01-13T12:06:08.887Z,93559.34
2023-01-13T12:08:52.972Z,93558.53
2023-01-13T12:11:33.855Z,93557.12
2023-01-13T12:14:25.016Z,93556.09
2023-01-13T12:16:52.333Z,93558.88
2023-01-13T12:19:29.288Z,93554.72
2023-01-13T12:22:03.173Z,93561.31
2023-01-13T12:24:40.959Z,93562.53
2023-01-13T12:27:21.327Z,93552.53
2023-01-13T12:29:52.328Z,93550.16
2023-01-13T12:32:25.233Z,93549.12
2023-01-13T12:35:17.336Z,93555.53
2023-01-13T12:37:54.607Z,93555.34
2023-01-13T12:40:41.717Z,93555.53
2023-01-13T12:43:35.006Z,93559.16
2023-01-13T12:46:24.682Z,93557.53
2023-01-13T12:48:55.528Z,93562.75
2023-01-13T12:51:25.371Z,93564.94
2023-01-13T12:53:55.057Z,93563.13
2023-01-13T12:56:36.482Z,93560.94
2023-01-13T12:59:19.605Z,93571.72
2023-01-13T13:01:49.475Z,93573.13
2023-01-13T13:04:20.841Z,93568.34
2023-01-13T13:07:26.799Z,93567.13
2023-01-13T13:09:57.796Z,93571.50
2023-01-13T13:12:50.114Z,93572.91
2023-01-13T13:15:28.952Z,93577.91
2023-01-13T13:17:59.783Z,93573.09
2023-01-13T13:20:54.170Z,93578.91
2023-01-13T13:23:53.229Z,93570.09
2023-01-13T13:26:28.790Z,93578.50
2023-01-13T13:29:24.339Z,93577.72
2023-01-13T13:32:36.311Z,93586.50
2023-01-13T13:35:43.389Z,93580.88
2023-01-13T13:38:41.552Z,93587.09
2023-01-13T13:41:37.288Z,93580.28
2023-01-13T13:44:48.601Z,93578.09
2023-01-13T13:47:16.460Z,93573.72
2023-01-13T13:49:54.332Z,93579.69
2023-01-13T13:52:32.069Z,93581.09
2023-01-13T13:55:08.926Z,93573.25
2023-01-13T13:57:42.714Z,93576.66
2023-01-13T14:00:17.271Z,93578.50
2023-01-13T14:03:19.649Z,93580.50
2023-01-13T14:06:02.847Z,93587.69
2023-01-13T14:08:34.062Z,93580.31
2023-01-13T14:11:02.003Z,93586.13
2023-01-13T14:13:31.825Z,93594.28
2023-01-13T14:16:04.815Z,93586.91
2023-01-13T14:18:45.868Z,93586.91
2023-01-13T14:21:26.391Z,93590.31
2023-01-13T14:23:56.785Z,93587.69
2023-01-13T14:26:27.711Z,93596.09
2023-01-13T14:28:56.819Z,93591.69
2023-01-13T14:31:25.329Z,93595.09
2023-01-13T14:33:55.903Z,93591.31
2023-01-13T14:36:25.715Z,93597.09
2023-01-13T14:39:05.535Z,93591.91
2023-01-13T14:41:53.641Z,93590.69
2023-01-13T14:44:32.426Z,93590.69
2023-01-13T14:47:17.457Z,93593.50
2023-01-13T14:49:57.099Z,93589.91
2023-01-13T14:52:25.031Z,93590.09
2023-01-13T14:55:04.907Z,93596.09
2023-01-13T14:57:34.181Z,93599.50
2023-01-13T15:00:13.859Z,93599.88
2023-01-13T15:03:13.736Z,93604.09
2023-01-13T15:05:52.555Z,93595.69
2023-01-13T15:08:28.263Z,93597.28
2023-01-13T15:11:02.315Z,93606.47
2023-01-13T15:13:38.134Z,93610.03
2023-01-13T15:16:13.619Z,93599.66
2023-01-13T15:18:41.458Z,93609.25
2023-01-13T15:21:09.683Z,93616.47
2023-01-13T15:23:38.653Z,93617.66
2023-01-13T15:26:23.055Z,93610.88
2023-01-13T15:28:51.852Z,93618.06
2023-01-13T15:31:19.756Z,93611.47
2023-01-13T15:33:47.329Z,93611.47
2023-01-13T15:36:27.934Z,93610.47
2023-01-13T15:38:55.656Z,93616.88
2023-01-13T15:41:42.811Z,93609.28
2023-01-13T15:44:30.307Z,93619.25
2023-01-13T15:47:00.732Z,93617.44
2023-01-13T15:49:45.337Z,93616.25
2023-01-13T15:52:23.638Z,93615.44
2023-01-13T15:54:51.966Z,93617.03
2023-01-13T15:57:28.501Z,93618.66
2023-01-13T15:59:58.269Z,93619.22
2023-01-13T16:02:26.945Z,93616.84
2023-01-13T16:04:55.000Z,93624.00
2023-01-13T16:07:24.633Z,93620.84
2023-01-13T16:09:52.511Z,93614.25
2023-01-13T16:12:20.461Z,93620.41
2023-01-13T16:14:47.764Z,93621.41
2023-01-13T16:17:21.895Z,93625.62
2023-01-13T16:19:50.035Z,93622.22
2023-01-13T16:22:18.736Z,93618.81
2023-01-13T16:24:46.351Z,93624.62
2023-01-13T16:27:17.695Z,93629.59
2023-01-13T16:29:46.071Z,93627.03
2023-01-13T16:32:14.833Z,93616.84
2023-01-13T16:34:43.067Z,93616.22
2023-01-13T16:37:26.291Z,93626.38
2023-01-13T16:39:54.577Z,93620.00
2023-01-13T16:42:22.176Z,93617.03
2023-01-13T16:44:50.867Z,93622.44
2023-01-13T16:47:19.129Z,93619.84
2023-01-13T16:49:46.603Z,93624.84
2023-01-13T16:52:14.259Z,93618.81
2023-01-13T16:54:41.843Z,93618.66
2023-01-13T16:57:13.410Z,93618.03
2023-01-13T16:59:40.745Z,93615.44
2023-01-13T17:02:16.075Z,93620.03
2023-01-13T17:04:43.679Z,93621.41
2023-01-13T17:07:17.230Z,93625.62
2023-01-13T17:09:44.793Z,93613.84
2023-01-13T17:12:12.550Z,93620.44
2023-01-13T17:14:40.227Z,93612.84
2023-01-13T17:17:19.919Z,93619.06
2023-01-13T17:19:47.593Z,93606.06
2023-01-13T17:22:15.144Z,93611.25
2023-01-13T17:24:42.762Z,93614.44
2023-01-13T17:27:10.463Z,93614.25
2023-01-13T17:29:38.527Z,93617.44
2023-01-13T17:32:06.110Z,93618.25
2023-01-13T17:34:33.855Z,93617.44
2023-01-13T17:37:01.205Z,93622.00
2023-01-13T17:39:28.538Z,93616.41
2023-01-13T17:41:56.146Z,93618.38
2023-01-13T17:44:23.755Z,93625.34
2023-01-13T17:46:51.505Z,93617.81
2023-01-13T17:49:21.994Z,93621.00
2023-01-13T17:51:51.239Z,93617.62
2023-01-13T17:54:21.138Z,93625.59
2023-01-13T17:56:48.481Z,93622.37
2023-01-13T17:59:18.723Z,93614.41
2023-01-13T18:01:46.994Z,93617.62
2023-01-13T18:04:21.441Z,93613.41
2023-01-13T18:06:49.341Z,93617.22
2023-01-13T18:09:18.067Z,93615.63
2023-01-13T18:11:47.207Z,93619.59
2023-01-13T18:14:16.530Z,93620.03
2023-01-13T18:16:44.379Z,93625.06
2023-01-13T18:19:30.261Z,93624.81
2023-01-13T18:22:16.536Z,93626.78
2023-01-13T18:25:03.034Z,93630.78
2023-01-13T18:27:38.226Z,93632.59
2023-01-13T18:30:06.817Z,93633.88
2023-01-13T18:32:34.987Z,93624.72
2023-01-13T18:35:06.641Z,93632.09
2023-01-13T18:37:42.410Z,93625.06
2023-01-13T18:40:13.404Z,93624.91
2023-01-13T18:42:58.439Z,93619.44
2023-01-13T18:45:29.506Z,93627.19
2023-01-13T18:48:00.585Z,93621.19
2023-01-13T18:50:28.577Z,93628.97
2023-01-13T18:52:56.856Z,93626.94
2023-01-13T18:55:25.177Z,93631.97
2023-01-13T18:57:53.395Z,93623.59
2023-01-13T19:00:22.346Z,93625.41
2023-01-13T19:05:35.370Z,93624.38
2023-01-13T19:08:04.101Z,93622.59
2023-01-13T19:10:32.804Z,93630.31
2023-01-13T19:13:01.852Z,93624.31
2023-01-13T19:15:29.664Z,93634.94
2023-01-13T19:17:56.862Z,93635.50
2023-01-13T19:20:24.331Z,93624.16
2023-01-13T19:22:54.502Z,93627.34
2023-01-13T19:25:21.995Z,93627.53
2023-01-13T19:27:49.359Z,93628.75
2023-01-13T19:30:17.600Z,93635.97
2023-01-13T19:32:45.141Z,93633.69
2023-01-13T19:35:13.291Z,93625.34
2023-01-13T19:37:41.062Z,93624.28
2023-01-13T19:40:09.791Z,93626.31
2023-01-13T19:42:55.793Z,93623.78
2023-01-13T19:45:35.313Z,93627.50
2023-01-13T19:48:04.776Z,93629.31
2023-01-13T19:50:35.947Z,93623.34
2023-01-13T19:53:03.131Z,93617.38
2023-01-13T19:55:32.022Z,93620.75
2023-01-13T19:57:59.549Z,93615.94
2023-01-13T20:00:26.686Z,93617.34
2023-01-13T20:02:56.925Z,93612.56
2023-01-13T20:05:26.133Z,93613.37
2023-01-13T20:07:54.171Z,93613.94
2023-01-13T20:10:22.573Z,93612.94
2023-01-13T20:12:49.752Z,93601.19
2023-01-13T20:15:17.545Z,93600.63
2023-01-13T20:17:44.816Z,93609.59
2023-01-13T20:20:12.215Z,93601.00
2023-01-13T20:22:40.267Z,93603.19
2023-01-13T20:25:07.834Z,93600.00
2023-01-13T20:27:35.141Z,93600.59
2023-01-13T20:30:02.901Z,93606.19
2023-01-13T20:32:30.046Z,93599.75
2023-01-13T20:34:57.455Z,93599.75
2023-01-13T20:37:25.157Z,93597.78
2023-01-13T20:39:52.336Z,93608.38
2023-01-13T20:42:51.739Z,93601.16
2023-01-13T20:45:21.710Z,93609.50
2023-01-13T20:47:49.111Z,93606.81
2023-01-13T20:50:16.575Z,93603.38
2023-01-13T20:52:44.145Z,93603.97
2023-01-13T20:55:12.066Z,93608.75
2023-01-13T20:57:39.979Z,93612.16
2023-01-13T21:00:08.044Z,93606.50
2023-01-13T21:02:35.306Z,93603.53
2023-01-13T21:05:02.489Z,93591.19
2023-01-13T21:07:30.013Z,93594.38
2023-01-13T21:09:57.988Z,93600.22
2023-01-13T21:12:43.616Z,93586.62
2023-01-13T21:15:17.619Z,93591.97
2023-01-13T21:18:04.150Z,93588.03
2023-01-13T21:20:36.348Z,93580.81
2023-01-13T21:23:04.291Z,93586.38
2023-01-13T21:25:35.155Z,93577.59
2023-01-13T21:28:11.585Z,93592.97
2023-01-13T21:30:39.608Z,93586.53
2023-01-13T21:33:06.823Z,93592.69
2023-01-13T21:35:37.276Z,93592.75
2023-01-13T21:38:04.860Z,93594.56
2023-01-13T21:40:32.054Z,93604.69
2023-01-13T21:43:17.980Z,93593.69
2023-01-13T21:46:05.568Z,93587.97
2023-01-13T21:48:33.116Z,93590.37
2023-01-13T21:51:01.506Z,93602.59
2023-01-13T21:53:28.804Z,93595.56
2023-01-13T21:55:56.297Z,93605.53
2023-01-13T21:58:23.841Z,93602.34
2023-01-13T22:00:51.010Z,93609.34
2023-01-13T22:03:18.941Z,93609.72
2023-01-13T22:05:46.593Z,93607.84
2023-01-13T22:08:13.922Z,93604.66
2023-01-13T22:10:58.098Z,93604.25
2023-01-13T22:13:44.857Z,93605.47
2023-01-13T22:16:12.533Z,93599.69
2023-01-13T22:18:39.997Z,93603.28
2023-01-13T22:21:07.311Z,93602.06
2023-01-13T22:23:34.861Z,93604.25
2023-01-13T22:26:05.814Z,93601.06
2023-01-13T22:28:43.405Z,93603.28
2023-01-13T22:31:12.376Z,93604.25
2023-01-13T22:33:40.334Z,93608.50
2023-01-13T22:36:08.627Z,93598.31
2023-01-13T22:38:36.614Z,93594.56
2023-01-13T22:41:06.722Z,93588.28
2023-01-13T22:43:34.434Z,93588.28
2023-01-13T22:46:07.083Z,93584.44
2023-01-13T22:48:34.703Z,93586.41
2023-01-13T22:51:30.652Z,93584.34
2023-01-13T22:53:58.015Z,93589.75
2023-01-13T22:56:26.147Z,93592.44
2023-01-13T22:58:54.560Z,93587.66
2023-01-13T23:01:22.590Z,93589.75
2023-01-13T23:03:50.756Z,93589.88
2023-01-13T23:06:18.644Z,93593.22
2023-01-13T23:08:46.528Z,93584.63
2023-01-13T23:11:15.317Z,93589.31
2023-01-13T23:13:43.418Z,93577.81
2023-01-13T23:16:12.147Z,93584.56
2023-01-13T23:18:42.717Z,93580.97
2023-01-13T23:21:12.065Z,93577.44
2023-01-13T23:23:39.899Z,93581.09
2023-01-13T23:26:07.753Z,93577.53
2023-01-13T23:28:35.718Z,93578.09
2023-01-13T23:31:07.531Z,93574.47
2023-01-13T23:33:34.896Z,93571.91
2023-01-13T23:36:04.221Z,93568.31
2023-01-13T23:38:31.741Z,93576.94
2023-01-13T23:40:59.411Z,93567.94
2023-01-13T23:43:27.420Z,93563.72
2023-01-13T23:46:05.284Z,93570.84
2023-01-13T23:48:33.397Z,93567.47
2023-01-13T23:51:01.140Z,93566.91
2023-01-13T23:53:33.638Z,93563.50
2023-01-13T23:56:01.979Z,93567.69
2023-01-13T23:58:29.707Z,93567.41
